Time;durP1;ratioP1;P1;durP2;ratioP2;P2;SDS_P1;SDS_P2;PMS_P1;PMS_P2;Temp;Humidity;BMP_temperature;BMP_pressure;BME280_temperature;BME280_humidity;BME280_pressure;Samples;Min_cycle;Max_cycle;Signal;HPM_P1;HPM_P2
2023/05/11 00:00:06;;;;;;;4.97;4.50;;;;;;;9.64;100.00;98565.19;5049411;28;20186;-62
2023/05/11 00:02:32;;;;;;;5.38;4.88;;;;;;;10.17;100.00;98650.56;5049420;28;20332;-62
2023/05/11 00:04:57;;;;;;;5.25;4.75;;;;;;;9.99;100.00;98604.34;5049333;28;20727;-62
2023/05/11 00:07:23;;;;;;;9.18;4.68;;;;;;;9.78;100.00;98556.59;5049327;28;20201;-62
2023/05/11 00:09:48;;;;;;;5.78;4.80;;;;;;;9.90;100.00;98553.22;5049233;28;20242;-62
2023/05/11 00:12:14;;;;;;;4.95;4.45;;;;;;;9.89;100.00;98562.75;5049332;28;20177;-62
2023/05/11 00:14:39;;;;;;;6.10;5.03;;;;;;;10.46;100.00;98643.56;5049324;28;20273;-62
2023/05/11 00:17:05;;;;;;;6.45;4.80;;;;;;;10.41;100.00;98624.91;5049275;28;20193;-62
2023/05/11 00:19:31;;;;;;;7.35;4.45;;;;;;;10.13;100.00;98580.25;5049266;28;20185;-62
2023/05/11 00:21:57;;;;;;;7.38;5.32;;;;;;;9.87;100.00;98556.03;5050727;28;20197;-63
2023/05/11 00:24:23;;;;;;;6.13;5.03;;;;;;;10.18;100.00;98617.81;5051601;28;20197;-62
2023/05/11 00:26:49;;;;;;;6.93;4.85;;;;;;;9.94;100.00;98598.66;5051587;28;20178;-63
2023/05/11 00:29:14;;;;;;;6.20;5.10;;;;;;;9.91;100.00;98567.81;5051519;28;20263;-63
2023/05/11 00:31:40;;;;;;;5.68;5.18;;;;;;;10.07;100.00;98609.88;5051527;28;20744;-62
2023/05/11 00:34:05;;;;;;;6.57;4.80;;;;;;;10.58;100.00;98677.25;5051519;28;20604;-62
2023/05/11 00:36:32;;;;;;;8.73;4.55;;;;;;;10.46;100.00;98659.09;5051480;28;20174;-62
2023/05/11 00:38:57;;;;;;;5.97;4.35;;;;;;;10.12;100.00;98613.03;5051720;28;20239;-62
2023/05/11 00:41:23;;;;;;;9.48;4.75;;;;;;;9.90;100.00;98560.97;5051423;28;20174;-62
2023/05/11 00:43:48;;;;;;;6.90;4.85;;;;;;;10.32;100.00;98657.38;5052442;28;20174;-62
2023/05/11 00:46:14;;;;;;;9.10;5.13;;;;;;;9.97;100.00;98614.78;5055282;28;20170;-62
2023/05/11 00:48:39;;;;;;;6.82;5.00;;;;;;;10.18;100.00;98656.59;5072554;28;20188;-62
2023/05/11 00:51:05;;;;;;;5.40;4.90;;;;;;;10.18;100.00;98685.03;5072797;28;20588;-62
2023/05/11 00:53:31;;;;;;;9.40;4.97;;;;;;;9.85;100.00;98630.22;5032635;28;20190;-62
2023/05/11 00:55:57;;;;;;;5.63;4.78;;;;;;;10.11;100.00;98668.25;5032738;28;20236;-62
2023/05/11 00:58:24;;;;;;;7.38;5.60;;;;;;;9.95;100.00;98620.97;5032505;28;20253;-62
2023/05/11 01:00:50;;;;;;;7.28;5.25;;;;;;;9.77;100.00;98580.78;5032659;28;20182;-62
2023/05/11 01:03:16;;;;;;;6.00;4.63;;;;;;;9.90;100.00;98599.75;5032601;28;20285;-62
2023/05/11 01:05:55;;;;;;;6.70;4.78;;;;;;;10.25;100.00;98670.78;5012676;28;20336;-63
2023/05/11 01:08:29;;;;;;;5.60;5.10;;;;;;;9.70;100.00;98579.50;5012754;28;20195;-63
2023/05/11 01:11:07;;;;;;;6.07;5.13;;;;;;;9.73;100.00;98566.38;5012726;28;20617;-63
2023/05/11 01:13:44;;;;;;;7.22;5.65;;;;;;;9.82;100.00;98587.31;5012690;28;20225;-63
2023/05/11 01:16:17;;;;;;;6.80;4.80;;;;;;;9.73;100.00;98588.81;5012749;28;20748;-62
2023/05/11 01:18:57;;;;;;;6.15;4.53;;;;;;;10.20;100.00;98662.47;5012550;28;20728;-63
2023/05/11 01:21:22;;;;;;;8.50;5.38;;;;;;;9.98;100.00;98628.56;5012576;28;20192;-63
2023/05/11 01:24:18;;;;;;;5.25;4.80;;;;;;;10.15;100.00;98659.38;5020623;28;20284;-63
2023/05/11 01:27:11;;;;;;;5.22;4.75;;;;;;;10.01;100.00;98667.97;5052159;28;20272;-63
2023/05/11 01:29:54;;;;;;;5.75;5.13;;;;;;;10.10;100.00;98661.41;5052075;28;20699;-62
2023/05/11 01:32:25;;;;;;;7.40;4.82;;;;;;;10.08;100.00;98632.22;5052036;28;20186;-63
2023/05/11 01:35:03;;;;;;;6.20;4.43;;;;;;;9.76;100.00;98573.94;5052063;28;20189;-63
2023/05/11 01:37:31;;;;;;;5.30;4.80;;;;;;;10.15;100.00;98616.25;5053938;28;20595;-63
2023/05/11 01:40:00;;;;;;;5.88;5.03;;;;;;;9.96;100.00;98560.59;5054317;28;20624;-63
2023/05/11 01:42:31;;;;;;;8.15;4.60;;;;;;;10.29;100.00;98590.34;5054259;28;20274;-63
2023/05/11 01:44:59;;;;;;;5.97;4.65;;;;;;;10.38;100.00;98589.72;5054244;28;20178;-63
2023/05/11 01:47:27;;;;;;;5.95;4.88;;;;;;;10.84;100.00;98660.00;5054134;28;20170;-63
2023/05/11 01:49:54;;;;;;;5.45;4.57;;;;;;;11.02;100.00;98677.75;5054015;28;20205;-63
2023/05/11 01:52:23;;;;;;;5.63;3.97;;;;;;;10.70;100.00;98657.50;5053756;28;20247;-63
2023/05/11 01:54:51;;;;;;;6.45;4.40;;;;;;;10.71;100.00;98670.34;5053624;28;20660;-63
2023/05/11 01:57:18;;;;;;;4.70;4.30;;;;;;;10.32;100.00;98615.16;5054000;28;20256;-63
2023/05/11 01:59:46;;;;;;;6.45;4.68;;;;;;;10.48;100.00;98652.03;5054095;28;20280;-63
2023/05/11 02:02:13;;;;;;;5.72;4.47;;;;;;;10.16;100.00;98627.44;5053934;28;20540;-63
2023/05/11 02:04:39;;;;;;;9.07;4.97;;;;;;;10.23;100.00;98657.13;5054090;28;20564;-63
2023/05/11 02:07:09;;;;;;;5.57;5.03;;;;;;;9.96;100.00;98612.28;5053539;28;20560;-63
2023/05/11 02:09:36;;;;;;;7.93;5.00;;;;;;;9.86;100.00;98585.38;5053633;28;20280;-62
2023/05/11 02:12:03;;;;;;;5.45;4.95;;;;;;;9.96;100.00;98620.88;5053715;28;20197;-63
2023/05/11 02:14:32;;;;;;;7.43;4.97;;;;;;;10.24;100.00;98659.63;5053672;28;20255;-62
2023/05/11 02:17:00;;;;;;;6.70;4.63;;;;;;;10.29;100.00;98660.16;5053339;28;20208;-63
2023/05/11 02:19:28;;;;;;;6.32;4.72;;;;;;;10.43;100.00;98654.09;5053257;28;20576;-63
2023/05/11 02:21:54;;;;;;;6.97;4.72;;;;;;;10.37;100.00;98664.84;5053533;28;20227;-63
2023/05/11 02:24:22;;;;;;;5.63;5.13;;;;;;;10.19;100.00;98614.28;5053480;28;20184;-63
2023/05/11 02:26:47;;;;;;;6.40;4.63;;;;;;;10.30;100.00;98617.00;5053412;28;20178;-63
2023/05/11 02:29:13;;;;;;;7.90;4.50;;;;;;;10.68;100.00;98664.53;5053321;28;20205;-63
2023/05/11 02:31:46;;;;;;;6.60;4.10;;;;;;;10.65;100.00;98651.78;5053311;28;20270;-63
2023/05/11 02:34:24;;;;;;;5.03;4.53;;;;;;;10.73;100.00;98652.13;5053351;28;20205;-62
2023/05/11 02:36:53;;;;;;;7.03;4.20;;;;;;;10.72;100.00;98665.97;5053010;28;20169;-63
2023/05/11 02:39:22;;;;;;;5.75;5.25;;;;;;;10.36;100.00;98627.81;5053230;28;20256;-63
2023/05/11 02:41:56;;;;;;;7.60;4.72;;;;;;;10.31;100.00;98629.84;5053118;28;20182;-63
2023/05/11 02:44:26;;;;;;;8.73;4.80;;;;;;;10.29;100.00;98661.91;5053154;28;20654;-63
2023/05/11 02:46:54;;;;;;;5.60;4.65;;;;;;;10.10;100.00;98620.06;5053105;28;20181;-63
2023/05/11 02:49:23;;;;;;;4.85;4.45;;;;;;;10.14;100.00;98631.84;5052895;28;20206;-63
2023/05/11 02:51:50;;;;;;;5.45;4.95;;;;;;;10.32;100.00;98661.69;5052948;28;20180;-63
2023/05/11 02:54:16;;;;;;;5.47;4.53;;;;;;;9.97;100.00;98617.38;5052920;28;20197;-63
2023/05/11 02:56:43;;;;;;;6.07;5.50;;;;;;;9.88;100.00;98586.91;5052843;28;20209;-63
2023/05/11 02:59:09;;;;;;;5.53;5.00;;;;;;;10.15;100.00;98659.38;5052850;28;20193;-63
2023/05/11 03:01:35;;;;;;;7.57;5.40;;;;;;;9.80;100.00;98601.28;5052732;28;20176;-63
2023/05/11 03:04:03;;;;;;;8.18;5.05;;;;;;;9.71;100.00;98583.75;5052724;28;20181;-63
2023/05/11 03:06:30;;;;;;;5.55;5.03;;;;;;;9.72;100.00;98593.16;5052231;28;20180;-63
2023/05/11 03:08:55;;;;;;;6.07;5.10;;;;;;;9.98;100.00;98681.06;5069919;28;20648;-63
2023/05/11 03:11:21;;;;;;;7.55;5.75;;;;;;;9.68;100.00;98638.16;5070316;28;20180;-63
2023/05/11 03:13:48;;;;;;;5.65;4.97;;;;;;;9.87;100.00;98698.16;5070042;28;20193;-63
2023/05/11 03:16:16;;;;;;;5.47;4.97;;;;;;;9.55;100.00;98606.28;5070082;28;20173;-63
2023/05/11 03:18:42;;;;;;;6.07;5.47;;;;;;;9.52;100.00;98585.81;5070000;28;20193;-63
2023/05/11 03:21:08;;;;;;;6.25;5.22;;;;;;;10.15;100.00;98680.06;5069954;28;20231;-63
2023/05/11 03:23:35;;;;;;;5.28;4.78;;;;;;;10.29;100.00;98688.63;5069843;28;20671;-63
2023/05/11 03:26:02;;;;;;;8.35;5.30;;;;;;;9.86;100.00;98616.41;5069895;28;20192;-63
2023/05/11 03:28:30;;;;;;;6.53;5.28;;;;;;;9.91;100.00;98622.06;5069816;28;20196;-63
2023/05/11 03:30:55;;;;;;;5.95;4.90;;;;;;;10.00;100.00;98652.53;5069764;28;20207;-63
2023/05/11 03:33:21;;;;;;;9.30;5.57;;;;;;;10.24;100.00;98687.22;5069758;28;20570;-63
2023/05/11 03:35:49;;;;;;;4.95;4.55;;;;;;;10.12;100.00;98654.38;5069702;28;20177;-63
2023/05/11 03:38:15;;;;;;;11.45;5.15;;;;;;;9.67;100.00;98604.72;5069751;28;20181;-63
2023/05/11 03:40:42;;;;;;;8.77;5.47;;;;;;;9.41;100.00;98570.16;5054856;28;20576;-63
2023/05/11 03:43:11;;;;;;;5.57;5.03;;;;;;;10.00;100.00;98655.13;5052087;28;20182;-63
2023/05/11 03:45:38;;;;;;;6.50;4.95;;;;;;;9.94;100.00;98665.84;5051969;28;20201;-63
2023/05/11 03:48:05;;;;;;;8.02;5.97;;;;;;;10.29;100.00;98705.88;5052021;28;20174;-63
2023/05/11 03:50:32;;;;;;;7.43;5.38;;;;;;;10.05;100.00;98678.97;5051921;28;20208;-63
2023/05/11 03:52:59;;;;;;;6.53;5.38;;;;;;;9.70;100.00;98615.69;5051621;28;20174;-63
2023/05/11 03:55:25;;;;;;;7.10;5.30;;;;;;;10.17;100.00;98685.97;5051898;28;20181;-63
2023/05/11 03:57:51;;;;;;;5.90;5.30;;;;;;;10.25;100.00;98691.47;5051735;28;20184;-63
2023/05/11 04:00:17;;;;;;;7.05;5.22;;;;;;;10.18;100.00;98664.34;5051927;28;20256;-63
2023/05/11 04:02:42;;;;;;;8.02;5.47;;;;;;;10.38;100.00;98713.88;5051522;28;20170;-63
2023/05/11 04:05:09;;;;;;;6.88;5.55;;;;;;;10.17;100.00;98658.34;5051526;28;20655;-63
2023/05/11 04:07:36;;;;;;;9.93;5.78;;;;;;;10.36;100.00;98663.19;5051742;28;20186;-63
2023/05/11 04:10:03;;;;;;;9.07;5.65;;;;;;;9.94;100.00;98609.81;5051417;28;20197;-63
2023/05/11 04:12:28;;;;;;;6.30;5.63;;;;;;;10.46;100.00;98690.13;5049182;28;20668;-63
2023/05/11 04:14:54;;;;;;;4.82;4.43;;;;;;;10.24;100.00;98644.09;5049289;28;20190;-63
2023/05/11 04:17:19;;;;;;;7.70;5.55;;;;;;;10.43;100.00;98674.78;5049482;28;20194;-63
2023/05/11 04:19:44;;;;;;;12.23;5.57;;;;;;;10.49;100.00;98682.16;5053439;28;20205;-63
2023/05/11 04:22:11;;;;;;;5.90;5.30;;;;;;;10.44;100.00;98671.31;5053578;28;20190;-63
2023/05/11 04:24:37;;;;;;;7.03;4.32;;;;;;;10.78;100.00;98707.84;5053272;28;20189;-63
2023/05/11 04:27:02;;;;;;;5.22;4.70;;;;;;;10.76;100.00;98711.44;5053562;28;20193;-63
2023/05/11 04:29:28;;;;;;;5.30;4.80;;;;;;;10.74;100.00;98700.38;5053162;28;20687;-63
2023/05/11 04:31:53;;;;;;;6.45;5.25;;;;;;;10.40;100.00;98672.41;5053445;28;20280;-63
2023/05/11 04:34:19;;;;;;;4.80;4.30;;;;;;;10.57;100.00;98704.03;5053159;28;20307;-63
2023/05/11 04:36:49;;;;;;;5.53;4.95;;;;;;;10.63;100.00;98700.22;5053143;28;20174;-63
2023/05/11 04:39:16;;;;;;;4.25;3.80;;;;;;;10.79;100.00;98714.66;5053167;28;20182;-63
2023/05/11 04:41:44;;;;;;;6.53;4.22;;;;;;;10.63;100.00;98671.78;5053019;28;20178;-63
2023/05/11 04:44:09;;;;;;;6.30;4.80;;;;;;;10.49;100.00;98659.72;5054644;28;20621;-63
2023/05/11 04:46:37;;;;;;;5.07;3.67;;;;;;;10.84;100.00;98702.25;5055333;28;20257;-63
2023/05/11 04:49:06;;;;;;;6.80;4.90;;;;;;;10.72;100.00;98668.56;5055241;28;20265;-63
2023/05/11 04:51:31;;;;;;;5.95;4.38;;;;;;;11.00;100.00;98708.09;5055197;28;20210;-63
2023/05/11 04:53:57;;;;;;;5.07;4.57;;;;;;;10.89;100.00;98674.31;5055140;28;20208;-63
2023/05/11 04:56:23;;;;;;;5.82;3.85;;;;;;;11.16;100.00;98715.69;5054860;28;20646;-63
2023/05/11 04:58:48;;;;;;;4.63;3.90;;;;;;;10.69;100.00;98635.97;5055071;28;20220;-63
2023/05/11 05:01:14;;;;;;;6.70;3.90;;;;;;;10.94;100.00;98681.78;5054818;28;20185;-63
2023/05/11 05:03:39;;;;;;;4.38;3.35;;;;;;;10.55;100.00;98624.84;5055002;28;20261;-63
2023/05/11 05:06:05;;;;;;;4.10;3.70;;;;;;;10.83;100.00;98702.34;5054987;28;20222;-63
2023/05/11 05:08:30;;;;;;;6.22;4.15;;;;;;;10.96;100.00;98718.75;5055173;28;20174;-63
2023/05/11 05:10:55;;;;;;;6.00;4.15;;;;;;;10.45;100.00;98631.56;5054821;28;20231;-63
2023/05/11 05:13:21;;;;;;;5.55;4.10;;;;;;;10.79;100.00;98698.31;5054803;28;20177;-63
2023/05/11 05:15:46;;;;;;;5.70;4.15;;;;;;;10.79;100.00;98709.50;5055051;28;20186;-63
2023/05/11 05:18:12;;;;;;;6.97;3.60;;;;;;;10.48;100.00;98652.88;5054758;28;20177;-63
2023/05/11 05:20:38;;;;;;;6.20;3.92;;;;;;;10.19;100.00;98616.88;5054701;28;20178;-63
2023/05/11 05:23:04;;;;;;;6.80;4.15;;;;;;;10.78;100.00;98727.69;5054586;28;20170;-63
2023/05/11 05:25:30;;;;;;;6.00;4.07;;;;;;;10.87;100.00;98721.94;5054620;28;20182;-63
2023/05/11 05:27:55;;;;;;;5.00;4.47;;;;;;;10.92;100.00;98714.72;5054545;28;20252;-63
2023/05/11 05:30:20;;;;;;;6.53;4.40;;;;;;;10.56;100.00;98650.63;5053663;28;20206;-63
2023/05/11 05:32:48;;;;;;;5.47;4.20;;;;;;;10.94;100.00;98723.19;5054419;28;20553;-63
2023/05/11 05:35:13;;;;;;;5.78;4.60;;;;;;;10.65;100.00;98675.06;5054388;28;20210;-63
2023/05/11 05:37:39;;;;;;;4.53;3.97;;;;;;;10.64;100.00;98679.44;5054335;28;20220;-63
2023/05/11 05:40:05;;;;;;;4.55;3.95;;;;;;;10.74;100.00;98692.63;5054330;28;20587;-63
2023/05/11 05:42:31;;;;;;;6.15;4.35;;;;;;;10.81;100.00;98697.28;5054273;28;20170;-63
2023/05/11 05:44:56;;;;;;;5.03;4.60;;;;;;;10.75;100.00;98692.50;5054240;28;20181;-63
2023/05/11 05:47:24;;;;;;;4.65;4.25;;;;;;;10.43;100.00;98643.75;5054134;28;20256;-63
2023/05/11 05:49:50;;;;;;;6.95;3.95;;;;;;;10.48;100.00;98644.28;5054083;28;20566;-63
2023/05/11 05:52:15;;;;;;;4.82;4.22;;;;;;;10.89;100.00;98691.59;5054120;28;20261;-62
2023/05/11 05:54:41;;;;;;;8.57;4.80;;;;;;;10.97;100.00;98729.00;5054025;28;20247;-62
2023/05/11 05:57:06;;;;;;;5.22;3.80;;;;;;;10.69;100.00;98661.84;5054011;28;20173;-62
2023/05/11 05:59:31;;;;;;;5.50;4.35;;;;;;;10.62;100.00;98644.25;5054016;28;20224;-62
2023/05/11 06:01:57;;;;;;;6.22;4.93;;;;;;;10.93;100.00;98690.47;5053940;28;20257;-62
2023/05/11 06:04:22;;;;;;;6.70;4.93;;;;;;;10.86;100.00;98677.09;5053861;28;20178;-62
2023/05/11 06:06:48;;;;;;;6.25;4.38;;;;;;;11.14;100.00;98735.69;5053833;28;20201;-63
2023/05/11 06:09:14;;;;;;;7.72;4.97;;;;;;;11.23;100.00;98743.69;5053665;28;20231;-63
2023/05/11 06:11:40;;;;;;;5.53;3.88;;;;;;;11.02;100.00;98706.25;5053863;28;20257;-63
2023/05/11 06:14:07;;;;;;;13.00;4.32;;;;;;;11.23;100.00;98719.53;5053742;28;20177;-63
2023/05/11 06:16:33;;;;;;;6.82;4.45;;;;;;;11.00;100.00;98660.66;5053575;28;20174;-63
2023/05/11 06:18:58;;;;;;;5.15;4.65;;;;;;;11.15;100.00;98675.19;5053622;28;20184;-63
2023/05/11 06:21:24;;;;;;;6.78;4.45;;;;;;;11.68;100.00;98752.78;5053556;28;20593;-63
2023/05/11 06:23:49;;;;;;;6.03;4.82;;;;;;;11.05;100.00;98653.41;5053521;28;20181;-62
2023/05/11 06:26:15;;;;;;;6.32;4.20;;;;;;;11.12;100.00;98654.66;5053484;28;20644;-63
2023/05/11 06:28:40;;;;;;;5.22;4.72;;;;;;;11.73;100.00;98740.34;5053449;28;20679;-63
2023/05/11 06:31:05;;;;;;;10.05;5.10;;;;;;;11.68;100.00;98752.78;5053364;28;20752;-63
2023/05/11 06:33:31;;;;;;;6.13;4.80;;;;;;;11.02;100.00;98638.06;5053603;28;20187;-63
2023/05/11 06:35:56;;;;;;;13.77;6.70;;;;;;;11.31;100.00;98691.34;5053294;28;20261;-63
2023/05/11 06:38:22;;;;;;;6.45;5.68;;;;;;;11.77;100.00;98737.44;5053217;28;20212;-62
2023/05/11 06:40:51;;;;;;;5.88;5.30;;;;;;;11.73;100.00;98688.50;5052233;28;20644;-63
2023/05/11 06:43:17;;;;;;;4.75;4.35;;;;;;;11.74;97.17;98682.38;5052792;28;20220;-63
2023/05/11 06:45:45;;;;;;;4.80;4.10;;;;;;;11.99;99.05;98737.63;5052800;28;20174;-63
2023/05/11 06:48:11;;;;;;;4.75;4.22;;;;;;;12.02;100.00;98741.78;5053039;28;20194;-63
2023/05/11 06:50:36;;;;;;;6.82;4.97;;;;;;;12.16;100.00;98744.22;5052900;28;20198;-63
2023/05/11 06:53:01;;;;;;;6.78;5.13;;;;;;;11.79;100.00;98647.41;5052988;28;20208;-63
2023/05/11 06:55:27;;;;;;;5.25;4.43;;;;;;;12.20;96.91;98699.00;5052909;28;20699;-63
2023/05/11 06:57:52;;;;;;;5.95;4.43;;;;;;;11.87;97.40;98649.47;5052753;28;20170;-62
2023/05/11 07:00:18;;;;;;;5.18;4.13;;;;;;;12.36;96.78;98736.72;5052879;28;20177;-63
2023/05/11 07:02:43;;;;;;;5.13;4.63;;;;;;;12.59;94.78;98764.47;5052716;28;20252;-63
2023/05/11 07:05:08;;;;;;;6.60;5.25;;;;;;;11.99;95.97;98658.97;5052691;28;20193;-63
2023/05/11 07:07:34;;;;;;;5.60;5.00;;;;;;;12.27;96.60;98700.22;5052654;28;20227;-63
2023/05/11 07:09:59;;;;;;;6.40;4.72;;;;;;;12.65;96.36;98750.22;5052581;28;20292;-63
2023/05/11 07:12:25;;;;;;;7.05;6.22;;;;;;;12.53;97.29;98702.59;5052560;28;20328;-63
2023/05/11 07:14:50;;;;;;;6.20;5.70;;;;;;;12.43;95.75;98651.47;5052842;28;20184;-63
2023/05/11 07:17:16;;;;;;;7.35;6.05;;;;;;;12.40;93.62;98659.47;5052537;28;20177;-63
2023/05/11 07:19:41;;;;;;;6.93;6.10;;;;;;;12.53;94.21;98692.22;5052462;28;20259;-63
2023/05/11 07:22:06;;;;;;;8.52;6.30;;;;;;;12.43;94.20;98669.63;5052132;28;20204;-63
2023/05/11 07:24:32;;;;;;;8.20;6.20;;;;;;;12.69;93.70;98723.09;5052345;28;20265;-63
2023/05/11 07:26:57;;;;;;;8.60;6.57;;;;;;;12.68;93.29;98690.28;5052306;28;20633;-63
2023/05/11 07:29:23;;;;;;;9.27;5.72;;;;;;;12.91;89.52;98712.81;5052212;28;20284;-63
2023/05/11 07:31:48;;;;;;;6.90;6.05;;;;;;;12.91;88.87;98689.44;5052232;28;20178;-63
2023/05/11 07:34:13;;;;;;;6.88;6.00;;;;;;;13.27;86.75;98744.75;5051997;28;20247;-63
2023/05/11 07:36:39;;;;;;;8.23;7.00;;;;;;;13.03;88.29;98720.59;5052202;28;20185;-63
2023/05/11 07:39:04;;;;;;;9.65;7.88;;;;;;;12.86;90.59;98673.34;5052142;28;20174;-63
2023/05/11 07:41:30;;;;;;;8.65;7.75;;;;;;;13.23;90.85;98732.06;5052042;28;20181;-63
2023/05/11 07:43:55;;;;;;;9.90;7.72;;;;;;;12.76;90.49;98652.44;5052068;28;20273;-63
2023/05/11 07:46:21;;;;;;;8.15;7.35;;;;;;;12.81;89.97;98665.91;5052002;28;20628;-63
2023/05/11 07:48:46;;;;;;;8.27;6.97;;;;;;;12.99;91.70;98689.72;5051996;28;20180;-63
2023/05/11 07:51:12;;;;;;;11.57;7.13;;;;;;;13.00;90.21;98691.41;5051815;28;20556;-63
2023/05/11 07:53:37;;;;;;;7.63;6.35;;;;;;;12.80;88.64;98658.22;5051845;28;20173;-63
2023/05/11 07:56:03;;;;;;;8.70;7.80;;;;;;;13.23;89.52;98724.28;5051911;28;20288;-63
2023/05/11 07:58:29;;;;;;;7.70;6.47;;;;;;;12.87;89.92;98669.81;5051860;28;20250;-63
2023/05/11 08:00:55;;;;;;;6.90;6.30;;;;;;;12.82;88.22;98645.94;5051868;28;20236;-63
2023/05/11 08:03:21;;;;;;;9.93;7.47;;;;;;;13.29;89.84;98731.66;5051807;28;20250;-63
2023/05/11 08:05:47;;;;;;;9.18;7.22;;;;;;;13.03;89.98;98676.41;5051797;28;20220;-63
2023/05/11 08:08:12;;;;;;;8.70;7.88;;;;;;;13.19;89.63;98702.09;5051791;28;20169;-63
2023/05/11 08:10:37;;;;;;;8.45;7.68;;;;;;;13.11;88.88;98676.66;5051674;28;20212;-63
2023/05/11 08:13:03;;;;;;;7.68;6.80;;;;;;;13.33;87.78;98718.31;5051759;28;20172;-63
2023/05/11 08:15:28;;;;;;;7.90;7.13;;;;;;;13.52;87.55;98728.13;5051450;28;20214;-63
2023/05/11 08:17:54;;;;;;;7.90;6.97;;;;;;;13.61;88.45;98750.84;5051701;28;20177;-63
2023/05/11 08:20:20;;;;;;;6.65;6.10;;;;;;;12.95;85.83;98664.91;5051748;28;20543;-63
2023/05/11 08:22:45;;;;;;;7.70;6.95;;;;;;;13.34;87.03;98708.72;5051368;28;20177;-63
2023/05/11 08:25:11;;;;;;;7.15;6.45;;;;;;;13.25;85.53;98701.63;5051664;28;20177;-63
2023/05/11 08:27:36;;;;;;;7.70;7.00;;;;;;;13.00;87.33;98660.25;5051616;28;20556;-63
2023/05/11 08:30:03;;;;;;;7.05;6.47;;;;;;;13.01;88.17;98664.47;5051610;28;20590;-63
2023/05/11 08:32:29;;;;;;;7.22;6.30;;;;;;;13.42;86.50;98730.59;5051546;28;20554;-63
2023/05/11 08:34:54;;;;;;;7.65;6.20;;;;;;;13.63;86.56;98733.34;5051537;28;20182;-63
2023/05/11 08:37:19;;;;;;;6.63;5.90;;;;;;;13.40;85.72;98705.66;5051524;28;20243;-63
2023/05/11 08:39:45;;;;;;;7.35;6.60;;;;;;;13.15;85.85;98653.88;5068973;28;20193;-63
2023/05/11 08:42:14;;;;;;;6.57;5.47;;;;;;;13.31;85.13;98693.38;5069143;28;20655;-63
2023/05/11 08:44:42;;;;;;;6.35;5.57;;;;;;;13.38;86.63;98712.75;5069029;28;20193;-63
2023/05/11 08:47:07;;;;;;;6.05;5.55;;;;;;;13.25;86.35;98680.84;5069054;28;20181;-63
2023/05/11 08:49:33;;;;;;;6.03;5.50;;;;;;;13.63;85.62;98743.75;5068897;28;20223;-63
2023/05/11 08:52:04;;;;;;;5.95;5.10;;;;;;;13.57;85.27;98744.22;5069035;28;20176;-63
2023/05/11 08:54:29;;;;;;;6.97;6.40;;;;;;;13.36;85.19;98696.47;5069059;28;20189;-63
2023/05/11 08:56:55;;;;;;;7.43;5.68;;;;;;;13.30;87.53;98715.09;5068961;28;20189;-63
2023/05/11 08:59:23;;;;;;;7.05;5.40;;;;;;;13.45;83.65;98700.94;5068707;28;20213;-63
2023/05/11 09:01:51;;;;;;;6.68;5.40;;;;;;;13.44;82.70;98705.34;5068867;28;20643;-63
2023/05/11 09:04:18;;;;;;;8.55;5.88;;;;;;;13.08;85.45;98663.06;5069006;28;20185;-63
2023/05/11 09:06:44;;;;;;;7.32;6.55;;;;;;;13.61;86.70;98732.66;5032440;28;20191;-63
2023/05/11 09:09:10;;;;;;;6.40;5.90;;;;;;;13.15;86.32;98654.72;5032473;28;20186;-63
2023/05/11 09:11:35;;;;;;;5.72;5.22;;;;;;;13.54;85.84;98713.25;5032483;28;20616;-63
2023/05/11 09:14:01;;;;;;;7.00;6.35;;;;;;;13.72;87.03;98727.47;5032822;28;20185;-63
2023/05/11 09:16:26;;;;;;;6.80;5.88;;;;;;;13.71;86.61;98715.41;5032484;28;20680;-63
2023/05/11 09:18:52;;;;;;;6.45;5.90;;;;;;;13.75;85.73;98714.22;5032477;28;20187;-63
2023/05/11 09:21:19;;;;;;;6.00;5.43;;;;;;;13.51;83.97;98653.69;5032233;28;20648;-63
2023/05/11 09:23:48;;;;;;;6.22;5.57;;;;;;;13.57;83.87;98681.81;5032299;28;20194;-63
2023/05/11 09:26:20;;;;;;;6.03;5.63;;;;;;;13.88;82.91;98714.97;5032223;28;20286;-63
2023/05/11 09:28:53;;;;;;;7.80;7.00;;;;;;;13.26;84.23;98623.56;5032240;28;20668;-63
2023/05/11 09:31:44;;;;;;;6.80;6.20;;;;;;;13.89;82.83;98716.59;5032036;28;20373;-63
2023/05/11 09:34:09;;;;;;;6.70;5.65;;;;;;;13.96;82.61;98713.41;5032150;28;20610;-63
2023/05/11 09:36:35;;;;;;;6.63;6.03;;;;;;;13.52;84.35;98647.53;5033289;28;20229;-63
2023/05/11 09:39:02;;;;;;;8.82;7.20;;;;;;;13.55;84.65;98621.31;5072009;28;20181;-63
2023/05/11 09:41:28;;;;;;;6.22;5.63;;;;;;;13.86;83.16;98657.00;5071905;28;20209;-63
2023/05/11 09:44:03;;;;;;;6.70;5.45;;;;;;;13.98;82.39;98653.44;5071766;28;20279;-63
2023/05/11 09:46:29;;;;;;;9.63;5.75;;;;;;;14.01;83.00;98661.81;5071837;28;20180;-63
2023/05/11 09:48:59;;;;;;;6.95;5.80;;;;;;;14.00;82.68;98664.56;5071800;28;20571;-63
2023/05/11 09:51:33;;;;;;;9.13;6.45;;;;;;;13.92;84.07;98659.13;5071628;28;20270;-63
2023/05/11 09:54:00;;;;;;;6.82;6.22;;;;;;;13.75;84.63;98638.78;5071757;28;20189;-63
2023/05/11 09:56:47;;;;;;;6.72;6.13;;;;;;;14.31;83.77;98700.28;5071618;28;20193;-62
2023/05/11 09:59:19;;;;;;;6.60;6.00;;;;;;;14.03;82.24;98644.34;5071489;28;20197;-62
2023/05/11 10:01:45;;;;;;;6.28;5.78;;;;;;;14.16;84.09;98691.88;5071573;28;20173;-63
2023/05/11 10:04:10;;;;;;;7.95;6.53;;;;;;;14.07;82.59;98671.78;5071500;28;20213;-63
2023/05/11 10:06:48;;;;;;;6.22;5.72;;;;;;;13.97;81.54;98654.38;5071405;28;20770;-63
2023/05/11 10:09:15;;;;;;;5.97;5.47;;;;;;;14.08;80.25;98644.81;5071366;28;20208;-63
2023/05/11 10:11:43;;;;;;;5.85;5.45;;;;;;;14.04;80.03;98619.97;5071403;28;20569;-63
2023/05/11 10:14:11;;;;;;;6.15;5.70;;;;;;;14.27;80.87;98636.38;5067812;28;20232;-63
2023/05/11 10:16:39;;;;;;;8.55;6.13;;;;;;;14.69;80.95;98677.22;5053413;28;20235;-63
2023/05/11 10:19:05;;;;;;;6.30;5.80;;;;;;;14.51;80.79;98634.41;5053960;28;20636;-63
2023/05/11 10:21:31;;;;;;;6.38;5.53;;;;;;;14.63;80.87;98642.06;5053848;28;20253;-63
2023/05/11 10:23:57;;;;;;;6.32;5.82;;;;;;;14.46;80.25;98598.34;5053850;28;20174;-63
2023/05/11 10:26:24;;;;;;;6.10;5.70;;;;;;;14.51;79.43;98597.97;5070890;28;20177;-63
2023/05/11 10:28:51;;;;;;;7.30;5.88;;;;;;;14.86;79.72;98642.78;5071045;28;20622;-63
2023/05/11 10:31:22;;;;;;;6.60;5.43;;;;;;;14.89;77.23;98621.72;5070836;28;20217;-63
2023/05/11 10:33:50;;;;;;;6.72;6.10;;;;;;;15.03;76.95;98621.38;5070983;28;20177;-63
2023/05/11 10:36:17;;;;;;;6.20;5.30;;;;;;;15.26;76.90;98641.97;5070871;28;20185;-63
2023/05/11 10:38:43;;;;;;;6.18;5.53;;;;;;;15.59;75.51;98680.06;5070830;28;20722;-63
2023/05/11 10:41:34;;;;;;;6.15;5.53;;;;;;;15.39;74.93;98636.59;5070801;28;20286;-63
2023/05/11 10:44:31;;;;;;;7.32;6.70;;;;;;;15.48;75.10;98620.16;5070821;28;20181;-63
2023/05/11 10:47:05;;;;;;;6.03;5.63;;;;;;;15.81;74.80;98666.88;5070734;28;20738;-63
2023/05/11 10:49:48;;;;;;;6.47;5.85;;;;;;;16.27;73.96;98664.53;5070604;28;20242;-63
2023/05/11 10:52:22;;;;;;;5.63;5.22;;;;;;;16.42;71.22;98668.44;5070618;28;20181;-63
2023/05/11 10:55:12;;;;;;;5.03;4.63;;;;;;;16.25;70.40;98671.66;5070559;28;20188;-63
2023/05/11 10:57:52;;;;;;;6.55;5.40;;;;;;;15.94;70.74;98630.94;5059491;28;20782;-63
2023/05/11 11:01:06;;;;;;;5.20;4.68;;;;;;;15.75;71.47;98662.97;5052921;28;20258;-63
2023/05/11 11:03:32;;;;;;;5.32;4.97;;;;;;;15.49;73.14;98653.09;5050359;28;20181;-63
2023/05/11 11:05:57;;;;;;;5.82;5.43;;;;;;;15.32;73.02;98619.78;5050360;28;20192;-63
2023/05/11 11:08:22;;;;;;;5.20;4.82;;;;;;;15.66;72.97;98652.50;5050556;28;20260;-63
2023/05/11 11:10:50;;;;;;;6.38;5.55;;;;;;;15.53;74.03;98631.03;5050257;28;20216;-63
2023/05/11 11:13:17;;;;;;;5.38;4.95;;;;;;;15.42;74.66;98605.03;5050119;28;20244;-62
2023/05/11 11:16:05;;;;;;;5.00;4.63;;;;;;;15.80;72.05;98668.63;5050100;28;20184;-62
2023/05/11 11:18:34;;;;;;;5.57;5.07;;;;;;;15.65;71.55;98667.34;5004989;28;20228;-61
2023/05/11 11:21:00;;;;;;;5.10;4.75;;;;;;;15.47;73.07;98626.34;5010290;28;20195;-62
2023/05/11 11:23:48;;;;;;;8.20;5.80;;;;;;;15.82;73.67;98663.28;5010110;28;20756;-61
2023/05/11 11:26:17;;;;;;;5.57;5.00;;;;;;;15.86;73.94;98649.03;5010389;28;20657;-62
2023/05/11 11:29:01;;;;;;;5.22;4.93;;;;;;;16.06;71.53;98650.75;5009544;28;20222;-62
2023/05/11 11:31:28;;;;;;;7.03;5.50;;;;;;;15.69;71.27;98585.25;5010242;28;20210;-61